sensor_id;sensor_type;location;lat;lon;timestamp;P1;durP1;ratioP1;P2;durP2;ratioP2
8066;SDS011;4076;48.076;9.118;2022-10-20T00:02:24;9.77;;;6.73;;
8066;SDS011;4076;48.076;9.118;2022-10-20T00:04:49;9.47;;;6.30;;
8066;SDS011;4076;48.076;9.118;2022-10-20T00:07:15;9.77;;;6.43;;
8066;SDS011;4076;48.076;9.118;2022-10-20T00:09:41;10.13;;;6.83;;
8066;SDS011;4076;48.076;9.118;2022-10-20T00:12:06;9.83;;;7.70;;
8066;SDS011;4076;48.076;9.118;2022-10-20T00:14:32;14.83;;;10.53;;
8066;SDS011;4076;48.076;9.118;2022-10-20T00:16:57;13.33;;;10.33;;
8066;SDS011;4076;48.076;9.118;2022-10-20T00:19:25;9.97;;;6.83;;
8066;SDS011;4076;48.076;9.118;2022-10-20T00:21:51;12.43;;;7.17;;
8066;SDS011;4076;48.076;9.118;2022-10-20T00:24:17;12.97;;;7.20;;
8066;SDS011;4076;48.076;9.118;2022-10-20T00:26:45;11.43;;;7.90;;
8066;SDS011;4076;48.076;9.118;2022-10-20T00:29:11;14.30;;;12.27;;
8066;SDS011;4076;48.076;9.118;2022-10-20T00:31:37;11.60;;;8.27;;
8066;SDS011;4076;48.076;9.118;2022-10-20T00:34:02;10.97;;;8.00;;
8066;SDS011;4076;48.076;9.118;2022-10-20T00:36:28;12.80;;;10.33;;
8066;SDS011;4076;48.076;9.118;2022-10-20T00:39:00;11.57;;;8.33;;
8066;SDS011;4076;48.076;9.118;2022-10-20T00:41:28;18.13;;;11.57;;
8066;SDS011;4076;48.076;9.118;2022-10-20T00:43:58;14.30;;;10.43;;
8066;SDS011;4076;48.076;9.118;2022-10-20T00:46:47;9.33;;;6.27;;
8066;SDS011;4076;48.076;9.118;2022-10-20T00:49:14;9.13;;;7.33;;
8066;SDS011;4076;48.076;9.118;2022-10-20T00:51:45;14.23;;;9.93;;
8066;SDS011;4076;48.076;9.118;2022-10-20T00:54:12;14.43;;;10.03;;
8066;SDS011;4076;48.076;9.118;2022-10-20T00:56:44;10.50;;;8.30;;
8066;SDS011;4076;48.076;9.118;2022-10-20T00:59:12;17.93;;;11.97;;
8066;SDS011;4076;48.076;9.118;2022-10-20T01:01:41;13.33;;;10.50;;
8066;SDS011;4076;48.076;9.118;2022-10-20T01:04:08;19.63;;;10.20;;
8066;SDS011;4076;48.076;9.118;2022-10-20T01:06:34;13.67;;;9.60;;
8066;SDS011;4076;48.076;9.118;2022-10-20T01:09:00;14.30;;;10.93;;
8066;SDS011;4076;48.076;9.118;2022-10-20T01:17:25;17.50;;;10.77;;
8066;SDS011;4076;48.076;9.118;2022-10-20T01:31:02;13.70;;;8.70;;
8066;SDS011;4076;48.076;9.118;2022-10-20T01:36:04;16.87;;;11.43;;
8066;SDS011;4076;48.076;9.118;2022-10-20T01:38:38;16.33;;;11.90;;
8066;SDS011;4076;48.076;9.118;2022-10-20T01:41:29;19.60;;;11.80;;
8066;SDS011;4076;48.076;9.118;2022-10-20T01:43:59;19.50;;;12.47;;
8066;SDS011;4076;48.076;9.118;2022-10-20T01:46:30;22.20;;;14.10;;
8066;SDS011;4076;48.076;9.118;2022-10-20T01:48:57;15.00;;;12.03;;
8066;SDS011;4076;48.076;9.118;2022-10-20T01:51:24;16.93;;;10.50;;
8066;SDS011;4076;48.076;9.118;2022-10-20T01:53:50;12.17;;;9.07;;
8066;SDS011;4076;48.076;9.118;2022-10-20T01:56:22;16.67;;;13.00;;
8066;SDS011;4076;48.076;9.118;2022-10-20T02:07:36;17.27;;;12.60;;
8066;SDS011;4076;48.076;9.118;2022-10-20T02:12:37;16.47;;;11.27;;
8066;SDS011;4076;48.076;9.118;2022-10-20T02:15:04;14.70;;;12.40;;
8066;SDS011;4076;48.076;9.118;2022-10-20T02:17:33;14.97;;;12.63;;
8066;SDS011;4076;48.076;9.118;2022-10-20T02:20:01;15.63;;;10.67;;
8066;SDS011;4076;48.076;9.118;2022-10-20T02:22:30;14.47;;;10.17;;
8066;SDS011;4076;48.076;9.118;2022-10-20T02:24:57;18.43;;;12.57;;
8066;SDS011;4076;48.076;9.118;2022-10-20T02:27:29;17.43;;;10.80;;
8066;SDS011;4076;48.076;9.118;2022-10-20T02:30:00;16.23;;;10.97;;
8066;SDS011;4076;48.076;9.118;2022-10-20T02:32:29;16.43;;;12.57;;
8066;SDS011;4076;48.076;9.118;2022-10-20T02:34:58;16.60;;;11.27;;
8066;SDS011;4076;48.076;9.118;2022-10-20T02:37:23;15.90;;;11.30;;
8066;SDS011;4076;48.076;9.118;2022-10-20T02:39:49;18.73;;;11.40;;
8066;SDS011;4076;48.076;9.118;2022-10-20T02:42:15;14.80;;;9.90;;
8066;SDS011;4076;48.076;9.118;2022-10-20T02:44:43;21.93;;;12.47;;
8066;SDS011;4076;48.076;9.118;2022-10-20T02:47:08;19.87;;;14.17;;
8066;SDS011;4076;48.076;9.118;2022-10-20T02:49:34;19.70;;;12.87;;
8066;SDS011;4076;48.076;9.118;2022-10-20T02:52:00;23.70;;;16.53;;
8066;SDS011;4076;48.076;9.118;2022-10-20T02:54:25;25.13;;;15.93;;
8066;SDS011;4076;48.076;9.118;2022-10-20T02:56:52;22.60;;;13.87;;
8066;SDS011;4076;48.076;9.118;2022-10-20T02:59:18;21.80;;;14.37;;
8066;SDS011;4076;48.076;9.118;2022-10-20T03:01:44;20.60;;;15.50;;
8066;SDS011;4076;48.076;9.118;2022-10-20T03:04:09;21.10;;;13.30;;
8066;SDS011;4076;48.076;9.118;2022-10-20T03:06:35;18.20;;;12.23;;
8066;SDS011;4076;48.076;9.118;2022-10-20T03:09:01;17.30;;;13.50;;
8066;SDS011;4076;48.076;9.118;2022-10-20T03:11:27;15.90;;;11.00;;
8066;SDS011;4076;48.076;9.118;2022-10-20T03:13:53;23.80;;;16.93;;
8066;SDS011;4076;48.076;9.118;2022-10-20T03:16:18;18.97;;;14.57;;
8066;SDS011;4076;48.076;9.118;2022-10-20T03:18:44;27.03;;;18.37;;
8066;SDS011;4076;48.076;9.118;2022-10-20T03:21:10;24.90;;;15.23;;
8066;SDS011;4076;48.076;9.118;2022-10-20T03:23:35;18.03;;;12.43;;
8066;SDS011;4076;48.076;9.118;2022-10-20T03:26:05;16.83;;;12.90;;
8066;SDS011;4076;48.076;9.118;2022-10-20T03:28:31;17.80;;;13.50;;
8066;SDS011;4076;48.076;9.118;2022-10-20T03:30:57;20.30;;;13.37;;
8066;SDS011;4076;48.076;9.118;2022-10-20T03:33:23;23.83;;;14.90;;
8066;SDS011;4076;48.076;9.118;2022-10-20T03:35:49;22.30;;;14.47;;
8066;SDS011;4076;48.076;9.118;2022-10-20T03:38:14;25.07;;;16.67;;
8066;SDS011;4076;48.076;9.118;2022-10-20T03:40:40;25.90;;;15.30;;
8066;SDS011;4076;48.076;9.118;2022-10-20T03:43:05;28.23;;;17.30;;
8066;SDS011;4076;48.076;9.118;2022-10-20T03:45:31;20.73;;;15.87;;
8066;SDS011;4076;48.076;9.118;2022-10-20T03:47:57;24.47;;;16.20;;
8066;SDS011;4076;48.076;9.118;2022-10-20T03:50:22;27.77;;;15.33;;
8066;SDS011;4076;48.076;9.118;2022-10-20T03:52:48;19.27;;;14.00;;
8066;SDS011;4076;48.076;9.118;2022-10-20T03:55:14;17.33;;;14.33;;
8066;SDS011;4076;48.076;9.118;2022-10-20T03:57:40;19.60;;;13.97;;
8066;SDS011;4076;48.076;9.118;2022-10-20T04:00:06;15.10;;;10.90;;
8066;SDS011;4076;48.076;9.118;2022-10-20T04:02:34;26.23;;;17.30;;
8066;SDS011;4076;48.076;9.118;2022-10-20T04:05:02;27.83;;;17.40;;
8066;SDS011;4076;48.076;9.118;2022-10-20T04:07:29;30.80;;;20.80;;
8066;SDS011;4076;48.076;9.118;2022-10-20T04:09:54;23.23;;;15.90;;
8066;SDS011;4076;48.076;9.118;2022-10-20T04:12:20;22.80;;;15.03;;
8066;SDS011;4076;48.076;9.118;2022-10-20T04:14:47;27.00;;;16.80;;
8066;SDS011;4076;48.076;9.118;2022-10-20T04:17:13;23.07;;;16.27;;
8066;SDS011;4076;48.076;9.118;2022-10-20T04:19:39;31.43;;;18.47;;
8066;SDS011;4076;48.076;9.118;2022-10-20T04:22:05;25.23;;;17.77;;
8066;SDS011;4076;48.076;9.118;2022-10-20T04:24:30;31.20;;;17.10;;
8066;SDS011;4076;48.076;9.118;2022-10-20T04:26:56;22.23;;;14.73;;
8066;SDS011;4076;48.076;9.118;2022-10-20T04:29:22;22.17;;;16.77;;
8066;SDS011;4076;48.076;9.118;2022-10-20T04:31:47;19.10;;;11.60;;
8066;SDS011;4076;48.076;9.118;2022-10-20T04:34:13;26.73;;;17.97;;
8066;SDS011;4076;48.076;9.118;2022-10-20T04:36:38;28.77;;;22.07;;
8066;SDS011;4076;48.076;9.118;2022-10-20T04:39:04;35.37;;;25.33;;
8066;SDS011;4076;48.076;9.118;2022-10-20T04:41:31;45.50;;;28.63;;
8066;SDS011;4076;48.076;9.118;2022-10-20T04:43:56;30.10;;;20.50;;
8066;SDS011;4076;48.076;9.118;2022-10-20T04:46:22;36.10;;;28.13;;
8066;SDS011;4076;48.076;9.118;2022-10-20T04:48:48;40.70;;;31.60;;
8066;SDS011;4076;48.076;9.118;2022-10-20T04:51:14;32.67;;;24.77;;
8066;SDS011;4076;48.076;9.118;2022-10-20T04:53:40;34.00;;;20.87;;
8066;SDS011;4076;48.076;9.118;2022-10-20T04:56:07;29.53;;;18.10;;
8066;SDS011;4076;48.076;9.118;2022-10-20T04:58:35;27.10;;;17.57;;
8066;SDS011;4076;48.076;9.118;2022-10-20T05:01:02;29.80;;;19.83;;
8066;SDS011;4076;48.076;9.118;2022-10-20T05:03:29;25.33;;;18.00;;
8066;SDS011;4076;48.076;9.118;2022-10-20T05:06:06;24.90;;;18.00;;
8066;SDS011;4076;48.076;9.118;2022-10-20T05:08:32;23.33;;;14.97;;
8066;SDS011;4076;48.076;9.118;2022-10-20T05:10:59;26.30;;;19.20;;
8066;SDS011;4076;48.076;9.118;2022-10-20T05:13:25;33.53;;;23.70;;
8066;SDS011;4076;48.076;9.118;2022-10-20T05:15:53;31.33;;;19.80;;
8066;SDS011;4076;48.076;9.118;2022-10-20T05:18:19;25.73;;;20.67;;
8066;SDS011;4076;48.076;9.118;2022-10-20T05:20:44;24.37;;;16.13;;
8066;SDS011;4076;48.076;9.118;2022-10-20T05:23:10;24.17;;;16.27;;
8066;SDS011;4076;48.076;9.118;2022-10-20T05:25:36;29.73;;;19.47;;
8066;SDS011;4076;48.076;9.118;2022-10-20T05:28:02;42.40;;;26.13;;
8066;SDS011;4076;48.076;9.118;2022-10-20T05:30:28;36.90;;;23.53;;
8066;SDS011;4076;48.076;9.118;2022-10-20T05:32:54;39.17;;;23.30;;
8066;SDS011;4076;48.076;9.118;2022-10-20T05:35:19;43.47;;;28.53;;
8066;SDS011;4076;48.076;9.118;2022-10-20T05:37:45;30.23;;;22.80;;
8066;SDS011;4076;48.076;9.118;2022-10-20T05:40:11;38.30;;;24.33;;
8066;SDS011;4076;48.076;9.118;2022-10-20T05:42:37;38.93;;;25.60;;
8066;SDS011;4076;48.076;9.118;2022-10-20T05:45:03;44.80;;;29.83;;
8066;SDS011;4076;48.076;9.118;2022-10-20T05:47:30;38.40;;;24.53;;
8066;SDS011;4076;48.076;9.118;2022-10-20T05:49:56;34.00;;;24.00;;
8066;SDS011;4076;48.076;9.118;2022-10-20T05:52:21;44.77;;;27.30;;
8066;SDS011;4076;48.076;9.118;2022-10-20T05:54:47;41.37;;;26.20;;
8066;SDS011;4076;48.076;9.118;2022-10-20T05:57:12;42.73;;;25.40;;
8066;SDS011;4076;48.076;9.118;2022-10-20T05:59:38;41.00;;;28.20;;
8066;SDS011;4076;48.076;9.118;2022-10-20T06:02:04;36.23;;;25.30;;
8066;SDS011;4076;48.076;9.118;2022-10-20T06:04:29;33.30;;;23.77;;
8066;SDS011;4076;48.076;9.118;2022-10-20T06:06:55;33.37;;;25.37;;
8066;SDS011;4076;48.076;9.118;2022-10-20T06:09:22;37.37;;;26.83;;
8066;SDS011;4076;48.076;9.118;2022-10-20T06:11:49;32.20;;;20.67;;
8066;SDS011;4076;48.076;9.118;2022-10-20T06:14:15;43.53;;;25.40;;
8066;SDS011;4076;48.076;9.118;2022-10-20T06:16:42;37.70;;;24.73;;
8066;SDS011;4076;48.076;9.118;2022-10-20T06:19:08;28.50;;;19.33;;
8066;SDS011;4076;48.076;9.118;2022-10-20T06:21:35;26.50;;;17.37;;
8066;SDS011;4076;48.076;9.118;2022-10-20T06:24:01;36.27;;;22.77;;
8066;SDS011;4076;48.076;9.118;2022-10-20T06:26:29;29.43;;;22.27;;
8066;SDS011;4076;48.076;9.118;2022-10-20T06:29:06;25.50;;;19.07;;
8066;SDS011;4076;48.076;9.118;2022-10-20T06:31:35;30.83;;;21.83;;
8066;SDS011;4076;48.076;9.118;2022-10-20T06:34:09;35.43;;;25.10;;
8066;SDS011;4076;48.076;9.118;2022-10-20T06:36:46;28.63;;;17.33;;
8066;SDS011;4076;48.076;9.118;2022-10-20T06:39:13;23.53;;;14.27;;
8066;SDS011;4076;48.076;9.118;2022-10-20T06:41:41;31.50;;;18.33;;
8066;SDS011;4076;48.076;9.118;2022-10-20T06:44:07;20.30;;;16.63;;
8066;SDS011;4076;48.076;9.118;2022-10-20T06:46:34;28.00;;;16.93;;
8066;SDS011;4076;48.076;9.118;2022-10-20T06:49:02;26.03;;;20.50;;
8066;SDS011;4076;48.076;9.118;2022-10-20T06:51:29;28.80;;;19.40;;
8066;SDS011;4076;48.076;9.118;2022-10-20T06:53:55;32.27;;;21.27;;
8066;SDS011;4076;48.076;9.118;2022-10-20T06:56:24;33.33;;;20.60;;
8066;SDS011;4076;48.076;9.118;2022-10-20T06:58:51;22.80;;;17.00;;
8066;SDS011;4076;48.076;9.118;2022-10-20T07:01:19;20.80;;;13.30;;
8066;SDS011;4076;48.076;9.118;2022-10-20T07:03:55;32.47;;;18.30;;
8066;SDS011;4076;48.076;9.118;2022-10-20T07:06:24;39.20;;;19.40;;
8066;SDS011;4076;48.076;9.118;2022-10-20T07:08:52;26.20;;;21.13;;
8066;SDS011;4076;48.076;9.118;2022-10-20T07:11:20;25.37;;;17.20;;
8066;SDS011;4076;48.076;9.118;2022-10-20T07:13:47;24.30;;;17.90;;
8066;SDS011;4076;48.076;9.118;2022-10-20T07:16:14;27.70;;;19.50;;
8066;SDS011;4076;48.076;9.118;2022-10-20T07:18:41;25.50;;;19.10;;
8066;SDS011;4076;48.076;9.118;2022-10-20T07:21:08;19.70;;;15.83;;
8066;SDS011;4076;48.076;9.118;2022-10-20T07:23:36;15.80;;;11.83;;
8066;SDS011;4076;48.076;9.118;2022-10-20T07:26:22;15.90;;;12.73;;
8066;SDS011;4076;48.076;9.118;2022-10-20T07:28:51;18.97;;;12.70;;
8066;SDS011;4076;48.076;9.118;2022-10-20T07:31:20;22.70;;;15.10;;
8066;SDS011;4076;48.076;9.118;2022-10-20T07:33:50;15.40;;;12.37;;
8066;SDS011;4076;48.076;9.118;2022-10-20T07:36:17;16.43;;;12.10;;
8066;SDS011;4076;48.076;9.118;2022-10-20T07:38:44;23.20;;;17.47;;
8066;SDS011;4076;48.076;9.118;2022-10-20T07:41:11;21.23;;;16.37;;
8066;SDS011;4076;48.076;9.118;2022-10-20T07:43:37;18.70;;;13.43;;
8066;SDS011;4076;48.076;9.118;2022-10-20T07:46:04;17.83;;;12.33;;
8066;SDS011;4076;48.076;9.118;2022-10-20T07:48:30;18.07;;;11.83;;
8066;SDS011;4076;48.076;9.118;2022-10-20T07:53:52;23.37;;;15.03;;
8066;SDS011;4076;48.076;9.118;2022-10-20T07:56:31;16.00;;;9.90;;
8066;SDS011;4076;48.076;9.118;2022-10-20T07:58:58;16.97;;;14.33;;
8066;SDS011;4076;48.076;9.118;2022-10-20T08:01:24;17.57;;;11.90;;
8066;SDS011;4076;48.076;9.118;2022-10-20T08:03:50;17.93;;;12.07;;
8066;SDS011;4076;48.076;9.118;2022-10-20T08:06:16;13.13;;;10.70;;
8066;SDS011;4076;48.076;9.118;2022-10-20T08:08:42;15.07;;;11.83;;
8066;SDS011;4076;48.076;9.118;2022-10-20T08:11:07;21.27;;;13.00;;
8066;SDS011;4076;48.076;9.118;2022-10-20T08:13:33;17.87;;;12.90;;
8066;SDS011;4076;48.076;9.118;2022-10-20T08:15:59;14.87;;;10.63;;
8066;SDS011;4076;48.076;9.118;2022-10-20T08:18:25;20.20;;;11.27;;
8066;SDS011;4076;48.076;9.118;2022-10-20T08:20:51;24.70;;;15.77;;
8066;SDS011;4076;48.076;9.118;2022-10-20T08:23:16;17.90;;;12.93;;
8066;SDS011;4076;48.076;9.118;2022-10-20T08:25:42;18.13;;;12.30;;
8066;SDS011;4076;48.076;9.118;2022-10-20T08:28:08;20.03;;;14.87;;
8066;SDS011;4076;48.076;9.118;2022-10-20T08:30:34;23.73;;;15.63;;
8066;SDS011;4076;48.076;9.118;2022-10-20T08:33:00;18.83;;;15.13;;
8066;SDS011;4076;48.076;9.118;2022-10-20T08:35:26;22.97;;;14.40;;
8066;SDS011;4076;48.076;9.118;2022-10-20T08:37:52;20.13;;;14.40;;
8066;SDS011;4076;48.076;9.118;2022-10-20T08:40:19;14.37;;;10.57;;
8066;SDS011;4076;48.076;9.118;2022-10-20T08:42:50;17.23;;;12.43;;
8066;SDS011;4076;48.076;9.118;2022-10-20T08:45:17;18.43;;;13.97;;
8066;SDS011;4076;48.076;9.118;2022-10-20T08:47:46;15.80;;;10.00;;
8066;SDS011;4076;48.076;9.118;2022-10-20T08:50:15;12.60;;;10.63;;
8066;SDS011;4076;48.076;9.118;2022-10-20T08:52:43;14.30;;;10.90;;
8066;SDS011;4076;48.076;9.118;2022-10-20T08:55:13;11.77;;;7.53;;
8066;SDS011;4076;48.076;9.118;2022-10-20T08:58:04;11.33;;;8.27;;
8066;SDS011;4076;48.076;9.118;2022-10-20T09:00:35;15.13;;;10.77;;
8066;SDS011;4076;48.076;9.118;2022-10-20T09:03:09;15.50;;;10.30;;
8066;SDS011;4076;48.076;9.118;2022-10-20T09:05:46;16.53;;;10.70;;
8066;SDS011;4076;48.076;9.118;2022-10-20T09:08:19;14.57;;;10.00;;
8066;SDS011;4076;48.076;9.118;2022-10-20T09:10:50;15.20;;;10.23;;
8066;SDS011;4076;48.076;9.118;2022-10-20T09:13:24;15.27;;;11.97;;
8066;SDS011;4076;48.076;9.118;2022-10-20T09:16:39;14.50;;;9.70;;
8066;SDS011;4076;48.076;9.118;2022-10-20T09:18:49;12.33;;;8.50;;
8066;SDS011;4076;48.076;9.118;2022-10-20T09:21:21;14.03;;;10.90;;
8066;SDS011;4076;48.076;9.118;2022-10-20T09:23:48;16.10;;;10.53;;
8066;SDS011;4076;48.076;9.118;2022-10-20T09:28:48;15.60;;;10.67;;
8066;SDS011;4076;48.076;9.118;2022-10-20T09:31:19;15.30;;;10.80;;
8066;SDS011;4076;48.076;9.118;2022-10-20T09:33:46;19.10;;;12.50;;
8066;SDS011;4076;48.076;9.118;2022-10-20T09:36:13;12.10;;;8.07;;
8066;SDS011;4076;48.076;9.118;2022-10-20T09:38:48;14.73;;;10.67;;
8066;SDS011;4076;48.076;9.118;2022-10-20T09:41:25;14.83;;;10.07;;
8066;SDS011;4076;48.076;9.118;2022-10-20T09:43:58;20.03;;;14.27;;
8066;SDS011;4076;48.076;9.118;2022-10-20T09:46:27;16.87;;;12.00;;
8066;SDS011;4076;48.076;9.118;2022-10-20T09:48:55;16.27;;;10.50;;
8066;SDS011;4076;48.076;9.118;2022-10-20T09:51:23;24.37;;;15.67;;
8066;SDS011;4076;48.076;9.118;2022-10-20T09:53:57;17.87;;;13.73;;
8066;SDS011;4076;48.076;9.118;2022-10-20T09:56:30;13.87;;;10.20;;
8066;SDS011;4076;48.076;9.118;2022-10-20T09:58:59;13.53;;;10.27;;
8066;SDS011;4076;48.076;9.118;2022-10-20T10:01:26;15.30;;;12.37;;
8066;SDS011;4076;48.076;9.118;2022-10-20T10:03:53;17.20;;;11.90;;
8066;SDS011;4076;48.076;9.118;2022-10-20T10:06:42;15.10;;;11.37;;
8066;SDS011;4076;48.076;9.118;2022-10-20T10:12:00;21.83;;;12.93;;
8066;SDS011;4076;48.076;9.118;2022-10-20T10:14:47;21.10;;;12.27;;
8066;SDS011;4076;48.076;9.118;2022-10-20T10:19:53;21.77;;;14.87;;
8066;SDS011;4076;48.076;9.118;2022-10-20T10:22:19;18.53;;;13.53;;
8066;SDS011;4076;48.076;9.118;2022-10-20T10:24:45;18.47;;;13.10;;
8066;SDS011;4076;48.076;9.118;2022-10-20T10:27:26;18.70;;;14.40;;
8066;SDS011;4076;48.076;9.118;2022-10-20T10:30:39;20.50;;;14.50;;
8066;SDS011;4076;48.076;9.118;2022-10-20T10:32:51;15.53;;;11.77;;
8066;SDS011;4076;48.076;9.118;2022-10-20T10:37:50;14.97;;;13.23;;
8066;SDS011;4076;48.076;9.118;2022-10-20T10:40:18;18.77;;;13.17;;
8066;SDS011;4076;48.076;9.118;2022-10-20T10:42:55;17.40;;;12.03;;
8066;SDS011;4076;48.076;9.118;2022-10-20T10:45:43;17.00;;;13.33;;
8066;SDS011;4076;48.076;9.118;2022-10-20T10:50:56;21.67;;;15.03;;
8066;SDS011;4076;48.076;9.118;2022-10-20T10:58:46;19.03;;;14.57;;
8066;SDS011;4076;48.076;9.118;2022-10-20T11:09:42;17.70;;;12.50;;
8066;SDS011;4076;48.076;9.118;2022-10-20T11:26:25;18.63;;;13.77;;
8066;SDS011;4076;48.076;9.118;2022-10-20T11:29:04;19.20;;;13.67;;
8066;SDS011;4076;48.076;9.118;2022-10-20T11:31:50;17.10;;;10.87;;
8066;SDS011;4076;48.076;9.118;2022-10-20T11:34:26;14.40;;;12.13;;
8066;SDS011;4076;48.076;9.118;2022-10-20T11:37:05;23.30;;;15.10;;
8066;SDS011;4076;48.076;9.118;2022-10-20T11:39:46;18.13;;;13.77;;
8066;SDS011;4076;48.076;9.118;2022-10-20T11:51:14;18.60;;;14.47;;
8066;SDS011;4076;48.076;9.118;2022-10-20T11:57:12;14.80;;;10.43;;
8066;SDS011;4076;48.076;9.118;2022-10-20T12:14:40;17.93;;;13.80;;
8066;SDS011;4076;48.076;9.118;2022-10-20T12:17:17;16.53;;;12.63;;
8066;SDS011;4076;48.076;9.118;2022-10-20T12:19:50;18.20;;;12.30;;
8066;SDS011;4076;48.076;9.118;2022-10-20T12:24:43;17.67;;;12.77;;
8066;SDS011;4076;48.076;9.118;2022-10-20T12:27:27;15.73;;;12.10;;
8066;SDS011;4076;48.076;9.118;2022-10-20T12:34:55;15.67;;;11.27;;
8066;SDS011;4076;48.076;9.118;2022-10-20T12:39:52;23.33;;;15.00;;
8066;SDS011;4076;48.076;9.118;2022-10-20T12:42:27;19.60;;;13.87;;
8066;SDS011;4076;48.076;9.118;2022-10-20T12:44:54;14.33;;;10.60;;
8066;SDS011;4076;48.076;9.118;2022-10-20T12:47:32;15.43;;;11.87;;
8066;SDS011;4076;48.076;9.118;2022-10-20T12:52:51;12.87;;;7.80;;
8066;SDS011;4076;48.076;9.118;2022-10-20T12:55:29;19.57;;;13.73;;
8066;SDS011;4076;48.076;9.118;2022-10-20T13:03:36;23.90;;;13.57;;
8066;SDS011;4076;48.076;9.118;2022-10-20T13:06:37;18.07;;;13.10;;
8066;SDS011;4076;48.076;9.118;2022-10-20T13:17:00;25.83;;;18.07;;
8066;SDS011;4076;48.076;9.118;2022-10-20T13:19:43;16.63;;;12.70;;
8066;SDS011;4076;48.076;9.118;2022-10-20T13:30:51;15.60;;;10.53;;
8066;SDS011;4076;48.076;9.118;2022-10-20T13:38:46;22.13;;;16.00;;
8066;SDS011;4076;48.076;9.118;2022-10-20T13:52:02;20.63;;;14.53;;
8066;SDS011;4076;48.076;9.118;2022-10-20T13:54:31;16.87;;;9.27;;
8066;SDS011;4076;48.076;9.118;2022-10-20T13:56:59;16.93;;;11.80;;
8066;SDS011;4076;48.076;9.118;2022-10-20T13:59:27;29.77;;;19.67;;
8066;SDS011;4076;48.076;9.118;2022-10-20T14:01:55;24.10;;;17.80;;
8066;SDS011;4076;48.076;9.118;2022-10-20T14:04:29;23.07;;;16.60;;
8066;SDS011;4076;48.076;9.118;2022-10-20T14:07:03;26.10;;;20.50;;
8066;SDS011;4076;48.076;9.118;2022-10-20T14:09:37;31.70;;;23.33;;
8066;SDS011;4076;48.076;9.118;2022-10-20T14:14:31;28.37;;;21.80;;
8066;SDS011;4076;48.076;9.118;2022-10-20T14:17:02;33.73;;;21.73;;
8066;SDS011;4076;48.076;9.118;2022-10-20T14:19:30;24.33;;;18.30;;
8066;SDS011;4076;48.076;9.118;2022-10-20T14:21:58;24.10;;;19.43;;
8066;SDS011;4076;48.076;9.118;2022-10-20T14:24:55;24.30;;;16.20;;
8066;SDS011;4076;48.076;9.118;2022-10-20T14:27:22;26.97;;;18.70;;
8066;SDS011;4076;48.076;9.118;2022-10-20T14:29:50;22.30;;;15.67;;
8066;SDS011;4076;48.076;9.118;2022-10-20T14:32:17;24.67;;;16.20;;
8066;SDS011;4076;48.076;9.118;2022-10-20T14:34:52;18.97;;;13.30;;
8066;SDS011;4076;48.076;9.118;2022-10-20T14:37:27;16.33;;;13.20;;
8066;SDS011;4076;48.076;9.118;2022-10-20T14:40:07;21.60;;;14.00;;
8066;SDS011;4076;48.076;9.118;2022-10-20T14:42:44;23.03;;;16.10;;
8066;SDS011;4076;48.076;9.118;2022-10-20T14:45:21;21.97;;;13.90;;
8066;SDS011;4076;48.076;9.118;2022-10-20T14:47:49;19.43;;;13.77;;
8066;SDS011;4076;48.076;9.118;2022-10-20T14:50:19;28.60;;;21.17;;
8066;SDS011;4076;48.076;9.118;2022-10-20T14:52:49;26.77;;;19.17;;
8066;SDS011;4076;48.076;9.118;2022-10-20T14:55:34;17.13;;;12.20;;
8066;SDS011;4076;48.076;9.118;2022-10-20T14:58:03;26.83;;;18.83;;
8066;SDS011;4076;48.076;9.118;2022-10-20T15:00:30;21.13;;;13.57;;
8066;SDS011;4076;48.076;9.118;2022-10-20T15:03:05;24.60;;;17.13;;
8066;SDS011;4076;48.076;9.118;2022-10-20T15:05:40;21.10;;;17.67;;
8066;SDS011;4076;48.076;9.118;2022-10-20T15:10:48;25.53;;;21.00;;
8066;SDS011;4076;48.076;9.118;2022-10-20T15:15:45;25.43;;;16.97;;
8066;SDS011;4076;48.076;9.118;2022-10-20T15:18:15;18.67;;;14.30;;
8066;SDS011;4076;48.076;9.118;2022-10-20T15:20:43;26.40;;;18.10;;
8066;SDS011;4076;48.076;9.118;2022-10-20T15:23:16;29.73;;;20.13;;
8066;SDS011;4076;48.076;9.118;2022-10-20T15:28:17;19.40;;;13.77;;
8066;SDS011;4076;48.076;9.118;2022-10-20T15:30:47;29.87;;;22.13;;
8066;SDS011;4076;48.076;9.118;2022-10-20T15:33:12;28.73;;;21.53;;
8066;SDS011;4076;48.076;9.118;2022-10-20T15:35:38;25.50;;;17.43;;
8066;SDS011;4076;48.076;9.118;2022-10-20T15:38:10;21.50;;;17.20;;
8066;SDS011;4076;48.076;9.118;2022-10-20T15:40:36;20.00;;;13.37;;
8066;SDS011;4076;48.076;9.118;2022-10-20T15:43:02;14.30;;;11.97;;
8066;SDS011;4076;48.076;9.118;2022-10-20T15:45:29;16.87;;;12.73;;
8066;SDS011;4076;48.076;9.118;2022-10-20T15:47:58;23.63;;;18.07;;
8066;SDS011;4076;48.076;9.118;2022-10-20T15:50:24;25.67;;;16.73;;
8066;SDS011;4076;48.076;9.118;2022-10-20T15:52:50;16.70;;;13.00;;
8066;SDS011;4076;48.076;9.118;2022-10-20T15:57:53;17.93;;;14.00;;
8066;SDS011;4076;48.076;9.118;2022-10-20T16:00:20;18.13;;;14.23;;
8066;SDS011;4076;48.076;9.118;2022-10-20T16:02:48;15.00;;;11.67;;
8066;SDS011;4076;48.076;9.118;2022-10-20T16:05:15;20.70;;;13.30;;
8066;SDS011;4076;48.076;9.118;2022-10-20T16:07:45;15.47;;;11.10;;
8066;SDS011;4076;48.076;9.118;2022-10-20T16:10:12;17.53;;;13.20;;
8066;SDS011;4076;48.076;9.118;2022-10-20T16:12:38;19.97;;;13.30;;
8066;SDS011;4076;48.076;9.118;2022-10-20T16:15:07;21.73;;;14.60;;
8066;SDS011;4076;48.076;9.118;2022-10-20T16:17:34;22.20;;;13.20;;
8066;SDS011;4076;48.076;9.118;2022-10-20T16:20:00;18.07;;;13.53;;
8066;SDS011;4076;48.076;9.118;2022-10-20T16:22:26;18.50;;;12.07;;
8066;SDS011;4076;48.076;9.118;2022-10-20T16:24:52;17.73;;;13.83;;
8066;SDS011;4076;48.076;9.118;2022-10-20T16:27:19;14.13;;;11.77;;
8066;SDS011;4076;48.076;9.118;2022-10-20T16:29:45;17.83;;;14.30;;
8066;SDS011;4076;48.076;9.118;2022-10-20T16:32:11;20.23;;;13.00;;
8066;SDS011;4076;48.076;9.118;2022-10-20T16:34:36;17.60;;;13.03;;
8066;SDS011;4076;48.076;9.118;2022-10-20T16:37:02;19.73;;;12.50;;
8066;SDS011;4076;48.076;9.118;2022-10-20T16:39:28;17.37;;;14.10;;
8066;SDS011;4076;48.076;9.118;2022-10-20T16:41:53;19.00;;;14.40;;
8066;SDS011;4076;48.076;9.118;2022-10-20T16:44:19;17.27;;;11.10;;
8066;SDS011;4076;48.076;9.118;2022-10-20T16:46:45;19.20;;;12.23;;
8066;SDS011;4076;48.076;9.118;2022-10-20T16:49:10;15.90;;;11.17;;
8066;SDS011;4076;48.076;9.118;2022-10-20T16:51:36;22.53;;;17.13;;
8066;SDS011;4076;48.076;9.118;2022-10-20T16:54:01;17.13;;;12.10;;
8066;SDS011;4076;48.076;9.118;2022-10-20T16:56:27;18.23;;;13.67;;
8066;SDS011;4076;48.076;9.118;2022-10-20T16:58:53;18.17;;;15.47;;
8066;SDS011;4076;48.076;9.118;2022-10-20T17:01:20;22.33;;;15.17;;
8066;SDS011;4076;48.076;9.118;2022-10-20T17:03:50;17.00;;;13.27;;
8066;SDS011;4076;48.076;9.118;2022-10-20T17:06:17;14.17;;;11.70;;
8066;SDS011;4076;48.076;9.118;2022-10-20T17:08:44;16.80;;;14.37;;
8066;SDS011;4076;48.076;9.118;2022-10-20T17:11:12;16.60;;;12.80;;
8066;SDS011;4076;48.076;9.118;2022-10-20T17:13:39;17.37;;;11.63;;
8066;SDS011;4076;48.076;9.118;2022-10-20T17:16:14;13.77;;;11.93;;
8066;SDS011;4076;48.076;9.118;2022-10-20T17:18:45;16.87;;;12.87;;
8066;SDS011;4076;48.076;9.118;2022-10-20T17:21:11;15.73;;;11.03;;
8066;SDS011;4076;48.076;9.118;2022-10-20T17:23:39;23.00;;;15.87;;
8066;SDS011;4076;48.076;9.118;2022-10-20T17:26:06;24.20;;;16.60;;
8066;SDS011;4076;48.076;9.118;2022-10-20T17:28:34;17.50;;;12.40;;
8066;SDS011;4076;48.076;9.118;2022-10-20T17:31:00;16.80;;;13.43;;
8066;SDS011;4076;48.076;9.118;2022-10-20T17:33:27;16.83;;;12.43;;
8066;SDS011;4076;48.076;9.118;2022-10-20T17:35:55;25.50;;;16.30;;
8066;SDS011;4076;48.076;9.118;2022-10-20T17:38:22;21.07;;;17.60;;
8066;SDS011;4076;48.076;9.118;2022-10-20T17:40:48;20.50;;;15.90;;
8066;SDS011;4076;48.076;9.118;2022-10-20T17:43:14;25.23;;;18.93;;
8066;SDS011;4076;48.076;9.118;2022-10-20T17:45:40;18.80;;;16.30;;